HFA weather

Haifa International Airport
Haifa, Haifa District, Israel

Public forecast

Using degrees Celsius for public forecast. Weather courtesy of forecast.io.

Current aviation weather report (METAR) for Haifa International Airport

Retrieved 2019/10/15 09:50 UTC (59 minutes ago):

LLHA 150950Z 11013KT CAVOK 36/11 Q1012

Aviation forecast (TAF) for Haifa International Airport

Retrieved 2019/10/15 06:00 UTC (5 hours ago):

TAF LLHA 150523Z 1506/1606 13010KT CAVOK TEMPO 1506/1507 12016KT 8000 RA FEW070TCU BKN080TCU PROB40 1507/1519 35012KT 7000 TSRA FEW080CB BKN100 PROB40 1519/1606 12015KT 7000 TSRA SCT012 FEW080CB TX37/1510Z TN24/1604Z